sensor_id;sensor_type;location;lat;lon;timestamp;temperature;humidity
10905;DHT22;5505;51.450;9.254;2024-03-17T00:02:42;4.10;99.90
10905;DHT22;5505;51.450;9.254;2024-03-17T00:05:29;4.10;99.90
10905;DHT22;5505;51.450;9.254;2024-03-17T00:08:15;4.70;99.90
10905;DHT22;5505;51.450;9.254;2024-03-17T00:11:01;4.10;99.90
10905;DHT22;5505;51.450;9.254;2024-03-17T00:13:50;4.00;99.90
10905;DHT22;5505;51.450;9.254;2024-03-17T00:16:35;4.00;99.90
10905;DHT22;5505;51.450;9.254;2024-03-17T00:19:23;3.90;99.90
10905;DHT22;5505;51.450;9.254;2024-03-17T00:22:09;4.90;99.90
10905;DHT22;5505;51.450;9.254;2024-03-17T00:24:59;3.80;99.90
10905;DHT22;5505;51.450;9.254;2024-03-17T00:27:45;3.70;99.90
10905;DHT22;5505;51.450;9.254;2024-03-17T00:30:35;4.10;99.90
10905;DHT22;5505;51.450;9.254;2024-03-17T00:33:22;3.70;99.90
10905;DHT22;5505;51.450;9.254;2024-03-17T00:36:08;3.60;99.90
10905;DHT22;5505;51.450;9.254;2024-03-17T00:38:54;1.00;99.90
10905;DHT22;5505;51.450;9.254;2024-03-17T00:41:40;3.40;99.90
10905;DHT22;5505;51.450;9.254;2024-03-17T00:44:27;3.40;99.90
10905;DHT22;5505;51.450;9.254;2024-03-17T00:47:14;3.30;99.90
10905;DHT22;5505;51.450;9.254;2024-03-17T00:50:01;4.20;99.90
10905;DHT22;5505;51.450;9.254;2024-03-17T00:52:47;3.20;99.90
10905;DHT22;5505;51.450;9.254;2024-03-17T00:55:34;3.20;99.90
10905;DHT22;5505;51.450;9.254;2024-03-17T00:58:21;3.20;99.90
10905;DHT22;5505;51.450;9.254;2024-03-17T01:01:08;3.20;99.90
10905;DHT22;5505;51.450;9.254;2024-03-17T01:03:56;3.20;99.90
10905;DHT22;5505;51.450;9.254;2024-03-17T01:06:42;3.20;99.90
10905;DHT22;5505;51.450;9.254;2024-03-17T01:09:28;3.10;99.90
10905;DHT22;5505;51.450;9.254;2024-03-17T01:12:14;3.30;99.90
10905;DHT22;5505;51.450;9.254;2024-03-17T01:15:04;3.40;99.90
10905;DHT22;5505;51.450;9.254;2024-03-17T01:17:51;4.80;99.90
10905;DHT22;5505;51.450;9.254;2024-03-17T01:20:38;3.40;99.90
10905;DHT22;5505;51.450;9.254;2024-03-17T01:23:25;3.40;99.90
10905;DHT22;5505;51.450;9.254;2024-03-17T01:26:11;1.30;99.90
10905;DHT22;5505;51.450;9.254;2024-03-17T01:28:58;3.40;99.90
10905;DHT22;5505;51.450;9.254;2024-03-17T01:31:44;3.40;99.90
10905;DHT22;5505;51.450;9.254;2024-03-17T01:34:31;4.90;99.90
10905;DHT22;5505;51.450;9.254;2024-03-17T01:37:19;3.40;99.90
10905;DHT22;5505;51.450;9.254;2024-03-17T01:40:06;3.40;99.90
10905;DHT22;5505;51.450;9.254;2024-03-17T01:42:54;3.40;99.90
10905;DHT22;5505;51.450;9.254;2024-03-17T01:45:41;3.30;99.90
10905;DHT22;5505;51.450;9.254;2024-03-17T01:48:29;3.30;99.90
10905;DHT22;5505;51.450;9.254;2024-03-17T01:51:16;3.30;99.90
10905;DHT22;5505;51.450;9.254;2024-03-17T01:54:04;3.30;99.90
10905;DHT22;5505;51.450;9.254;2024-03-17T01:56:51;3.30;99.90
10905;DHT22;5505;51.450;9.254;2024-03-17T01:59:38;3.20;99.90
10905;DHT22;5505;51.450;9.254;2024-03-17T02:02:25;3.20;99.90
10905;DHT22;5505;51.450;9.254;2024-03-17T02:05:14;3.20;99.90
10905;DHT22;5505;51.450;9.254;2024-03-17T02:08:00;3.20;99.90
10905;DHT22;5505;51.450;9.254;2024-03-17T02:10:52;3.20;99.90
10905;DHT22;5505;51.450;9.254;2024-03-17T02:13:38;3.20;99.90
10905;DHT22;5505;51.450;9.254;2024-03-17T02:16:25;3.30;99.90
10905;DHT22;5505;51.450;9.254;2024-03-17T02:19:11;2.00;99.90
10905;DHT22;5505;51.450;9.254;2024-03-17T02:21:58;3.20;99.90
10905;DHT22;5505;51.450;9.254;2024-03-17T02:24:46;3.20;99.90
10905;DHT22;5505;51.450;9.254;2024-03-17T02:27:32;3.10;99.90
10905;DHT22;5505;51.450;9.254;2024-03-17T02:30:19;2.90;99.90
10905;DHT22;5505;51.450;9.254;2024-03-17T02:33:06;2.70;99.90
10905;DHT22;5505;51.450;9.254;2024-03-17T02:35:52;2.60;99.90
10905;DHT22;5505;51.450;9.254;2024-03-17T02:38:39;2.50;99.90
10905;DHT22;5505;51.450;9.254;2024-03-17T02:41:44;2.40;99.90
10905;DHT22;5505;51.450;9.254;2024-03-17T02:44:32;2.40;99.90
10905;DHT22;5505;51.450;9.254;2024-03-17T02:47:19;2.40;99.90
10905;DHT22;5505;51.450;9.254;2024-03-17T02:50:07;2.40;99.90
10905;DHT22;5505;51.450;9.254;2024-03-17T02:52:54;2.40;99.90
10905;DHT22;5505;51.450;9.254;2024-03-17T02:55:42;3.10;99.90
10905;DHT22;5505;51.450;9.254;2024-03-17T02:58:30;4.00;99.90
10905;DHT22;5505;51.450;9.254;2024-03-17T03:01:17;2.50;99.90
10905;DHT22;5505;51.450;9.254;2024-03-17T03:04:04;2.40;99.90
10905;DHT22;5505;51.450;9.254;2024-03-17T03:06:51;2.40;99.90
10905;DHT22;5505;51.450;9.254;2024-03-17T03:09:39;2.50;99.90
10905;DHT22;5505;51.450;9.254;2024-03-17T03:12:25;2.20;99.90
10905;DHT22;5505;51.450;9.254;2024-03-17T03:15:14;2.20;99.90
10905;DHT22;5505;51.450;9.254;2024-03-17T03:18:01;2.20;99.90
10905;DHT22;5505;51.450;9.254;2024-03-17T03:20:50;2.20;99.90
10905;DHT22;5505;51.450;9.254;2024-03-17T03:23:38;2.20;99.90
10905;DHT22;5505;51.450;9.254;2024-03-17T03:26:25;2.20;99.90
10905;DHT22;5505;51.450;9.254;2024-03-17T03:29:12;2.10;99.90
10905;DHT22;5505;51.450;9.254;2024-03-17T03:32:01;2.10;99.90
10905;DHT22;5505;51.450;9.254;2024-03-17T03:34:48;2.10;99.90
10905;DHT22;5505;51.450;9.254;2024-03-17T03:37:35;2.00;99.90
10905;DHT22;5505;51.450;9.254;2024-03-17T03:40:22;1.90;99.90
10905;DHT22;5505;51.450;9.254;2024-03-17T03:43:11;1.80;99.90
10905;DHT22;5505;51.450;9.254;2024-03-17T03:45:59;1.70;99.90
10905;DHT22;5505;51.450;9.254;2024-03-17T03:48:47;1.70;99.90
10905;DHT22;5505;51.450;9.254;2024-03-17T03:51:34;1.70;99.90
10905;DHT22;5505;51.450;9.254;2024-03-17T03:54:20;3.60;99.90
10905;DHT22;5505;51.450;9.254;2024-03-17T03:57:07;1.70;99.90
10905;DHT22;5505;51.450;9.254;2024-03-17T03:59:54;1.70;99.90
10905;DHT22;5505;51.450;9.254;2024-03-17T04:02:42;1.70;99.90
10905;DHT22;5505;51.450;9.254;2024-03-17T04:05:30;1.70;99.90
10905;DHT22;5505;51.450;9.254;2024-03-17T04:08:17;1.70;99.90
10905;DHT22;5505;51.450;9.254;2024-03-17T04:11:04;1.70;99.90
10905;DHT22;5505;51.450;9.254;2024-03-17T04:13:53;1.70;99.90
10905;DHT22;5505;51.450;9.254;2024-03-17T04:16:41;1.70;99.90
10905;DHT22;5505;51.450;9.254;2024-03-17T04:19:28;1.60;99.90
10905;DHT22;5505;51.450;9.254;2024-03-17T04:22:17;1.60;99.90
10905;DHT22;5505;51.450;9.254;2024-03-17T04:25:05;1.60;99.90
10905;DHT22;5505;51.450;9.254;2024-03-17T04:27:52;1.60;99.90
10905;DHT22;5505;51.450;9.254;2024-03-17T04:30:39;2.30;99.90
10905;DHT22;5505;51.450;9.254;2024-03-17T04:33:25;1.60;99.90
10905;DHT22;5505;51.450;9.254;2024-03-17T04:36:11;1.60;99.90
10905;DHT22;5505;51.450;9.254;2024-03-17T04:39:00;1.50;99.90
10905;DHT22;5505;51.450;9.254;2024-03-17T04:41:47;1.50;99.90
10905;DHT22;5505;51.450;9.254;2024-03-17T04:44:35;1.40;99.90
10905;DHT22;5505;51.450;9.254;2024-03-17T04:47:22;3.00;99.90
10905;DHT22;5505;51.450;9.254;2024-03-17T04:50:09;1.40;99.90
10905;DHT22;5505;51.450;9.254;2024-03-17T04:52:59;1.40;99.90
10905;DHT22;5505;51.450;9.254;2024-03-17T04:55:58;1.50;99.90
10905;DHT22;5505;51.450;9.254;2024-03-17T04:58:45;1.40;99.90
10905;DHT22;5505;51.450;9.254;2024-03-17T05:01:32;2.40;99.90
10905;DHT22;5505;51.450;9.254;2024-03-17T05:04:21;1.30;99.90
10905;DHT22;5505;51.450;9.254;2024-03-17T05:07:08;1.30;99.90
10905;DHT22;5505;51.450;9.254;2024-03-17T05:09:55;3.00;99.90
10905;DHT22;5505;51.450;9.254;2024-03-17T05:12:44;1.40;99.90
10905;DHT22;5505;51.450;9.254;2024-03-17T05:15:36;1.40;99.90
10905;DHT22;5505;51.450;9.254;2024-03-17T05:18:23;1.40;99.90
10905;DHT22;5505;51.450;9.254;2024-03-17T05:21:11;1.40;99.90
10905;DHT22;5505;51.450;9.254;2024-03-17T05:24:01;1.30;99.90
10905;DHT22;5505;51.450;9.254;2024-03-17T05:26:48;1.20;99.90
10905;DHT22;5505;51.450;9.254;2024-03-17T05:29:36;1.10;99.90
10905;DHT22;5505;51.450;9.254;2024-03-17T05:32:23;1.10;99.90
10905;DHT22;5505;51.450;9.254;2024-03-17T05:35:12;1.10;99.90
10905;DHT22;5505;51.450;9.254;2024-03-17T05:37:58;1.10;99.90
10905;DHT22;5505;51.450;9.254;2024-03-17T05:40:53;1.10;99.90
10905;DHT22;5505;51.450;9.254;2024-03-17T05:43:40;1.10;99.90
10905;DHT22;5505;51.450;9.254;2024-03-17T05:46:29;-0.40;99.90
10905;DHT22;5505;51.450;9.254;2024-03-17T05:49:16;1.00;99.90
10905;DHT22;5505;51.450;9.254;2024-03-17T05:52:04;0.90;99.90
10905;DHT22;5505;51.450;9.254;2024-03-17T05:54:54;0.80;99.90
10905;DHT22;5505;51.450;9.254;2024-03-17T05:57:41;0.80;99.90
10905;DHT22;5505;51.450;9.254;2024-03-17T06:00:28;0.80;99.90
10905;DHT22;5505;51.450;9.254;2024-03-17T06:03:17;0.90;99.90
10905;DHT22;5505;51.450;9.254;2024-03-17T06:06:05;1.10;99.90
10905;DHT22;5505;51.450;9.254;2024-03-17T06:08:53;1.40;99.90
10905;DHT22;5505;51.450;9.254;2024-03-17T06:11:40;1.70;99.90
10905;DHT22;5505;51.450;9.254;2024-03-17T06:14:26;2.00;99.90
10905;DHT22;5505;51.450;9.254;2024-03-17T06:17:13;2.20;99.90
10905;DHT22;5505;51.450;9.254;2024-03-17T06:20:02;2.40;99.90
10905;DHT22;5505;51.450;9.254;2024-03-17T06:22:49;2.30;99.90
10905;DHT22;5505;51.450;9.254;2024-03-17T06:25:39;2.40;99.90
10905;DHT22;5505;51.450;9.254;2024-03-17T06:28:25;2.70;99.90
10905;DHT22;5505;51.450;9.254;2024-03-17T06:31:12;2.90;99.90
10905;DHT22;5505;51.450;9.254;2024-03-17T06:33:59;3.00;99.90
10905;DHT22;5505;51.450;9.254;2024-03-17T06:36:48;3.00;99.90
10905;DHT22;5505;51.450;9.254;2024-03-17T06:39:35;4.00;99.90
10905;DHT22;5505;51.450;9.254;2024-03-17T06:42:22;3.10;99.90
10905;DHT22;5505;51.450;9.254;2024-03-17T06:45:09;3.10;99.90
10905;DHT22;5505;51.450;9.254;2024-03-17T06:47:56;4.60;99.90
10905;DHT22;5505;51.450;9.254;2024-03-17T06:50:43;3.10;99.90
10905;DHT22;5505;51.450;9.254;2024-03-17T06:53:31;3.10;99.90
10905;DHT22;5505;51.450;9.254;2024-03-17T06:56:19;3.00;99.90
10905;DHT22;5505;51.450;9.254;2024-03-17T06:59:06;3.10;99.90
10905;DHT22;5505;51.450;9.254;2024-03-17T07:01:53;3.10;99.90
10905;DHT22;5505;51.450;9.254;2024-03-17T07:04:39;4.20;99.90
10905;DHT22;5505;51.450;9.254;2024-03-17T07:07:27;3.40;99.90
10905;DHT22;5505;51.450;9.254;2024-03-17T07:10:15;3.60;99.90
10905;DHT22;5505;51.450;9.254;2024-03-17T07:13:02;3.70;99.90
10905;DHT22;5505;51.450;9.254;2024-03-17T07:15:49;3.80;99.90
10905;DHT22;5505;51.450;9.254;2024-03-17T07:18:36;3.70;99.90
10905;DHT22;5505;51.450;9.254;2024-03-17T07:21:23;3.70;99.90
10905;DHT22;5505;51.450;9.254;2024-03-17T07:24:09;3.70;99.90
10905;DHT22;5505;51.450;9.254;2024-03-17T07:26:58;3.70;99.90
10905;DHT22;5505;51.450;9.254;2024-03-17T07:29:44;3.90;99.90
10905;DHT22;5505;51.450;9.254;2024-03-17T07:32:32;4.00;99.90
10905;DHT22;5505;51.450;9.254;2024-03-17T07:35:19;4.20;99.90
10905;DHT22;5505;51.450;9.254;2024-03-17T07:38:06;4.40;99.90
10905;DHT22;5505;51.450;9.254;2024-03-17T07:40:57;4.50;99.90
10905;DHT22;5505;51.450;9.254;2024-03-17T07:43:46;5.30;99.90
10905;DHT22;5505;51.450;9.254;2024-03-17T07:46:33;4.70;99.90
10905;DHT22;5505;51.450;9.254;2024-03-17T07:49:19;4.80;99.90
10905;DHT22;5505;51.450;9.254;2024-03-17T07:52:07;5.00;99.90
10905;DHT22;5505;51.450;9.254;2024-03-17T07:54:53;5.30;99.90
10905;DHT22;5505;51.450;9.254;2024-03-17T07:57:40;5.50;99.90
10905;DHT22;5505;51.450;9.254;2024-03-17T08:00:28;5.60;99.90
10905;DHT22;5505;51.450;9.254;2024-03-17T08:03:15;6.00;99.90
10905;DHT22;5505;51.450;9.254;2024-03-17T08:06:03;5.80;99.90
10905;DHT22;5505;51.450;9.254;2024-03-17T08:08:50;5.90;99.90
10905;DHT22;5505;51.450;9.254;2024-03-17T08:11:37;6.00;99.90
10905;DHT22;5505;51.450;9.254;2024-03-17T08:14:24;6.20;99.90
10905;DHT22;5505;51.450;9.254;2024-03-17T08:17:13;7.50;99.90
10905;DHT22;5505;51.450;9.254;2024-03-17T08:20:00;6.70;99.90
10905;DHT22;5505;51.450;9.254;2024-03-17T08:22:47;6.80;99.90
10905;DHT22;5505;51.450;9.254;2024-03-17T08:25:34;7.00;99.90
10905;DHT22;5505;51.450;9.254;2024-03-17T08:28:21;7.20;99.90
10905;DHT22;5505;51.450;9.254;2024-03-17T08:31:08;7.30;99.90
10905;DHT22;5505;51.450;9.254;2024-03-17T08:33:56;7.50;99.90
10905;DHT22;5505;51.450;9.254;2024-03-17T08:36:43;8.20;99.90
10905;DHT22;5505;51.450;9.254;2024-03-17T08:39:30;7.90;99.90
10905;DHT22;5505;51.450;9.254;2024-03-17T08:42:17;9.20;99.90
10905;DHT22;5505;51.450;9.254;2024-03-17T08:45:05;8.40;99.90
10905;DHT22;5505;51.450;9.254;2024-03-17T08:47:52;8.60;99.90
10905;DHT22;5505;51.450;9.254;2024-03-17T08:50:40;8.80;99.90
10905;DHT22;5505;51.450;9.254;2024-03-17T08:53:28;10.60;99.90
10905;DHT22;5505;51.450;9.254;2024-03-17T08:56:15;9.80;99.90
10905;DHT22;5505;51.450;9.254;2024-03-17T08:59:01;9.40;99.90
10905;DHT22;5505;51.450;9.254;2024-03-17T09:01:48;9.50;99.90
10905;DHT22;5505;51.450;9.254;2024-03-17T09:04:35;9.50;99.90
10905;DHT22;5505;51.450;9.254;2024-03-17T09:07:23;9.60;99.90
10905;DHT22;5505;51.450;9.254;2024-03-17T09:10:10;9.60;99.90
10905;DHT22;5505;51.450;9.254;2024-03-17T09:12:58;9.80;99.90
10905;DHT22;5505;51.450;9.254;2024-03-17T09:15:52;9.90;99.90
10905;DHT22;5505;51.450;9.254;2024-03-17T09:18:39;9.90;99.90
10905;DHT22;5505;51.450;9.254;2024-03-17T09:21:26;10.00;43.50
10905;DHT22;5505;51.450;9.254;2024-03-17T09:24:14;10.10;1.00
10905;DHT22;5505;51.450;9.254;2024-03-17T09:27:01;11.50;1.20
10905;DHT22;5505;51.450;9.254;2024-03-17T09:29:49;10.20;1.00
10905;DHT22;5505;51.450;9.254;2024-03-17T09:32:36;10.30;1.00
10905;DHT22;5505;51.450;9.254;2024-03-17T09:35:23;10.30;1.00
10905;DHT22;5505;51.450;9.254;2024-03-17T09:38:10;9.80;1.00
10905;DHT22;5505;51.450;9.254;2024-03-17T09:40:59;10.30;3.60
10905;DHT22;5505;51.450;9.254;2024-03-17T09:43:47;10.40;1.00
10905;DHT22;5505;51.450;9.254;2024-03-17T09:46:34;10.40;1.00
10905;DHT22;5505;51.450;9.254;2024-03-17T09:49:21;10.30;99.90
10905;DHT22;5505;51.450;9.254;2024-03-17T09:52:16;10.30;1.00
10905;DHT22;5505;51.450;9.254;2024-03-17T09:55:09;10.10;99.90
10905;DHT22;5505;51.450;9.254;2024-03-17T09:57:57;10.00;99.90
10905;DHT22;5505;51.450;9.254;2024-03-17T10:00:44;10.00;99.90
10905;DHT22;5505;51.450;9.254;2024-03-17T10:03:42;10.00;99.90
10905;DHT22;5505;51.450;9.254;2024-03-17T10:06:31;10.00;1.00
10905;DHT22;5505;51.450;9.254;2024-03-17T10:09:18;10.10;1.00
10905;DHT22;5505;51.450;9.254;2024-03-17T10:12:25;9.40;86.70
10905;DHT22;5505;51.450;9.254;2024-03-17T10:15:14;10.30;99.90
10905;DHT22;5505;51.450;9.254;2024-03-17T10:18:01;10.40;1.00
10905;DHT22;5505;51.450;9.254;2024-03-17T10:20:47;10.70;99.90
10905;DHT22;5505;51.450;9.254;2024-03-17T10:23:38;11.00;1.00
10905;DHT22;5505;51.450;9.254;2024-03-17T10:26:24;11.20;99.90
10905;DHT22;5505;51.450;9.254;2024-03-17T10:29:23;11.30;21.20
10905;DHT22;5505;51.450;9.254;2024-03-17T10:32:14;11.40;1.00
10905;DHT22;5505;51.450;9.254;2024-03-17T10:35:03;11.40;99.90
10905;DHT22;5505;51.450;9.254;2024-03-17T10:37:53;11.40;1.00
10905;DHT22;5505;51.450;9.254;2024-03-17T10:40:41;11.50;16.80
10905;DHT22;5505;51.450;9.254;2024-03-17T10:43:29;11.40;99.90
10905;DHT22;5505;51.450;9.254;2024-03-17T10:46:17;11.40;99.90
10905;DHT22;5505;51.450;9.254;2024-03-17T10:49:09;11.40;99.90
10905;DHT22;5505;51.450;9.254;2024-03-17T10:52:01;12.10;99.90
10905;DHT22;5505;51.450;9.254;2024-03-17T10:54:51;11.40;1.00
10905;DHT22;5505;51.450;9.254;2024-03-17T10:57:45;12.80;99.90
10905;DHT22;5505;51.450;9.254;2024-03-17T11:00:34;11.70;1.00
10905;DHT22;5505;51.450;9.254;2024-03-17T11:03:21;11.80;99.90
10905;DHT22;5505;51.450;9.254;2024-03-17T11:06:10;11.70;1.00
10905;DHT22;5505;51.450;9.254;2024-03-17T11:08:57;11.80;99.90
10905;DHT22;5505;51.450;9.254;2024-03-17T11:11:45;11.80;1.00
10905;DHT22;5505;51.450;9.254;2024-03-17T11:14:32;11.70;1.00
10905;DHT22;5505;51.450;9.254;2024-03-17T11:17:19;11.60;1.00
10905;DHT22;5505;51.450;9.254;2024-03-17T11:20:13;11.40;1.00
10905;DHT22;5505;51.450;9.254;2024-03-17T11:23:01;11.00;1.00
10905;DHT22;5505;51.450;9.254;2024-03-17T11:25:51;11.00;48.20
10905;DHT22;5505;51.450;9.254;2024-03-17T11:28:46;11.80;99.90
10905;DHT22;5505;51.450;9.254;2024-03-17T11:31:44;10.60;99.90
10905;DHT22;5505;51.450;9.254;2024-03-17T11:34:38;10.70;19.10
10905;DHT22;5505;51.450;9.254;2024-03-17T11:37:41;11.00;99.90
10905;DHT22;5505;51.450;9.254;2024-03-17T11:40:28;11.30;99.90
10905;DHT22;5505;51.450;9.254;2024-03-17T11:43:17;11.50;99.90
10905;DHT22;5505;51.450;9.254;2024-03-17T11:46:03;11.50;17.30
10905;DHT22;5505;51.450;9.254;2024-03-17T11:48:50;11.60;99.90
10905;DHT22;5505;51.450;9.254;2024-03-17T11:51:38;11.70;99.90
10905;DHT22;5505;51.450;9.254;2024-03-17T11:54:27;11.70;1.00
10905;DHT22;5505;51.450;9.254;2024-03-17T11:57:20;11.80;1.00
10905;DHT22;5505;51.450;9.254;2024-03-17T12:00:19;11.80;1.00
10905;DHT22;5505;51.450;9.254;2024-03-17T12:03:09;11.60;1.00
10905;DHT22;5505;51.450;9.254;2024-03-17T12:05:56;12.40;1.00
10905;DHT22;5505;51.450;9.254;2024-03-17T12:08:42;11.40;99.90
10905;DHT22;5505;51.450;9.254;2024-03-17T12:11:30;11.30;1.00
10905;DHT22;5505;51.450;9.254;2024-03-17T12:14:19;12.10;1.00
10905;DHT22;5505;51.450;9.254;2024-03-17T12:17:07;11.30;1.00
10905;DHT22;5505;51.450;9.254;2024-03-17T12:19:53;11.50;1.00
10905;DHT22;5505;51.450;9.254;2024-03-17T12:22:41;11.50;1.00
10905;DHT22;5505;51.450;9.254;2024-03-17T12:25:28;11.50;99.90
10905;DHT22;5505;51.450;9.254;2024-03-17T12:28:16;11.60;1.00
10905;DHT22;5505;51.450;9.254;2024-03-17T12:31:04;13.70;99.90
10905;DHT22;5505;51.450;9.254;2024-03-17T12:33:51;11.60;1.00
10905;DHT22;5505;51.450;9.254;2024-03-17T12:36:38;11.50;99.90
10905;DHT22;5505;51.450;9.254;2024-03-17T12:39:25;11.50;1.00
10905;DHT22;5505;51.450;9.254;2024-03-17T12:42:13;11.60;1.00
10905;DHT22;5505;51.450;9.254;2024-03-17T12:45:00;11.70;1.00
10905;DHT22;5505;51.450;9.254;2024-03-17T12:47:51;11.70;1.00
10905;DHT22;5505;51.450;9.254;2024-03-17T12:50:43;12.00;1.00
10905;DHT22;5505;51.450;9.254;2024-03-17T12:53:30;11.80;1.00
10905;DHT22;5505;51.450;9.254;2024-03-17T12:56:23;11.70;1.00
10905;DHT22;5505;51.450;9.254;2024-03-17T12:59:37;11.70;1.00
10905;DHT22;5505;51.450;9.254;2024-03-17T13:02:41;11.80;1.00
10905;DHT22;5505;51.450;9.254;2024-03-17T13:05:30;11.90;99.90
10905;DHT22;5505;51.450;9.254;2024-03-17T13:08:17;11.90;1.00
10905;DHT22;5505;51.450;9.254;2024-03-17T13:11:04;11.80;99.90
10905;DHT22;5505;51.450;9.254;2024-03-17T13:13:55;11.80;99.90
10905;DHT22;5505;51.450;9.254;2024-03-17T13:16:42;12.30;1.00
10905;DHT22;5505;51.450;9.254;2024-03-17T13:19:29;11.70;99.90
10905;DHT22;5505;51.450;9.254;2024-03-17T13:22:39;11.70;99.90
10905;DHT22;5505;51.450;9.254;2024-03-17T13:25:28;11.70;1.00
10905;DHT22;5505;51.450;9.254;2024-03-17T13:28:20;11.80;99.90
10905;DHT22;5505;51.450;9.254;2024-03-17T13:31:07;11.80;99.90
10905;DHT22;5505;51.450;9.254;2024-03-17T13:33:55;11.60;99.90
10905;DHT22;5505;51.450;9.254;2024-03-17T13:36:42;11.50;1.00
10905;DHT22;5505;51.450;9.254;2024-03-17T13:39:31;11.40;99.90
10905;DHT22;5505;51.450;9.254;2024-03-17T13:42:19;11.50;1.00
10905;DHT22;5505;51.450;9.254;2024-03-17T13:45:10;11.40;1.00
10905;DHT22;5505;51.450;9.254;2024-03-17T13:47:59;11.60;1.00
10905;DHT22;5505;51.450;9.254;2024-03-17T13:50:46;11.60;1.00
10905;DHT22;5505;51.450;9.254;2024-03-17T13:53:35;11.70;1.00
10905;DHT22;5505;51.450;9.254;2024-03-17T13:56:23;11.90;99.90
10905;DHT22;5505;51.450;9.254;2024-03-17T13:59:09;11.80;99.90
10905;DHT22;5505;51.450;9.254;2024-03-17T14:01:56;11.80;99.90
10905;DHT22;5505;51.450;9.254;2024-03-17T14:04:43;11.80;1.00
10905;DHT22;5505;51.450;9.254;2024-03-17T14:07:31;11.80;99.90
10905;DHT22;5505;51.450;9.254;2024-03-17T14:10:19;11.80;99.90
10905;DHT22;5505;51.450;9.254;2024-03-17T14:13:07;11.70;99.90
10905;DHT22;5505;51.450;9.254;2024-03-17T14:15:55;11.70;99.90
10905;DHT22;5505;51.450;9.254;2024-03-17T14:18:42;11.50;44.40
10905;DHT22;5505;51.450;9.254;2024-03-17T14:21:29;11.60;99.90
10905;DHT22;5505;51.450;9.254;2024-03-17T14:24:15;11.70;1.00
10905;DHT22;5505;51.450;9.254;2024-03-17T14:27:02;12.60;1.00
10905;DHT22;5505;51.450;9.254;2024-03-17T14:29:52;11.70;99.90
10905;DHT22;5505;51.450;9.254;2024-03-17T14:32:38;11.50;99.90
10905;DHT22;5505;51.450;9.254;2024-03-17T14:35:25;11.60;99.90
10905;DHT22;5505;51.450;9.254;2024-03-17T14:38:13;11.70;99.90
10905;DHT22;5505;51.450;9.254;2024-03-17T14:41:00;11.60;99.90
10905;DHT22;5505;51.450;9.254;2024-03-17T14:43:47;11.60;1.00
10905;DHT22;5505;51.450;9.254;2024-03-17T14:46:35;12.70;1.00
10905;DHT22;5505;51.450;9.254;2024-03-17T14:49:23;11.60;99.90
10905;DHT22;5505;51.450;9.254;2024-03-17T14:52:10;11.70;99.90
10905;DHT22;5505;51.450;9.254;2024-03-17T14:54:56;11.70;99.90
10905;DHT22;5505;51.450;9.254;2024-03-17T14:57:45;11.80;3.10
10905;DHT22;5505;51.450;9.254;2024-03-17T15:00:32;11.70;1.00
10905;DHT22;5505;51.450;9.254;2024-03-17T15:03:20;11.60;99.90
10905;DHT22;5505;51.450;9.254;2024-03-17T15:06:11;12.40;1.00
10905;DHT22;5505;51.450;9.254;2024-03-17T15:08:58;11.50;99.90
10905;DHT22;5505;51.450;9.254;2024-03-17T15:11:45;11.60;99.90
10905;DHT22;5505;51.450;9.254;2024-03-17T15:14:32;11.60;13.90
10905;DHT22;5505;51.450;9.254;2024-03-17T15:17:19;11.30;99.90
10905;DHT22;5505;51.450;9.254;2024-03-17T15:20:09;11.20;99.90
10905;DHT22;5505;51.450;9.254;2024-03-17T15:23:01;11.10;1.00
10905;DHT22;5505;51.450;9.254;2024-03-17T15:25:50;11.00;99.90
10905;DHT22;5505;51.450;9.254;2024-03-17T15:28:39;12.00;1.00
10905;DHT22;5505;51.450;9.254;2024-03-17T15:31:27;10.90;1.00
10905;DHT22;5505;51.450;9.254;2024-03-17T15:34:13;10.90;1.00
10905;DHT22;5505;51.450;9.254;2024-03-17T15:37:02;10.90;1.00
10905;DHT22;5505;51.450;9.254;2024-03-17T15:39:49;10.80;99.90
10905;DHT22;5505;51.450;9.254;2024-03-17T15:42:36;10.80;99.90
10905;DHT22;5505;51.450;9.254;2024-03-17T15:45:22;10.70;1.00
10905;DHT22;5505;51.450;9.254;2024-03-17T15:48:10;10.70;1.00
10905;DHT22;5505;51.450;9.254;2024-03-17T15:50:58;10.70;1.00
10905;DHT22;5505;51.450;9.254;2024-03-17T15:53:46;10.60;99.90
10905;DHT22;5505;51.450;9.254;2024-03-17T15:56:34;10.70;99.90
10905;DHT22;5505;51.450;9.254;2024-03-17T15:59:21;10.60;1.00
10905;DHT22;5505;51.450;9.254;2024-03-17T16:02:08;10.50;1.00
10905;DHT22;5505;51.450;9.254;2024-03-17T16:04:57;10.50;99.90
10905;DHT22;5505;51.450;9.254;2024-03-17T16:07:45;10.40;1.00
10905;DHT22;5505;51.450;9.254;2024-03-17T16:10:33;10.50;99.90
10905;DHT22;5505;51.450;9.254;2024-03-17T16:13:22;10.50;1.00
10905;DHT22;5505;51.450;9.254;2024-03-17T16:16:14;10.50;99.90
10905;DHT22;5505;51.450;9.254;2024-03-17T16:19:01;10.50;99.90
10905;DHT22;5505;51.450;9.254;2024-03-17T16:21:48;10.40;1.00
10905;DHT22;5505;51.450;9.254;2024-03-17T16:24:35;10.40;1.00
10905;DHT22;5505;51.450;9.254;2024-03-17T16:27:25;10.40;1.00
10905;DHT22;5505;51.450;9.254;2024-03-17T16:30:12;10.30;99.90
10905;DHT22;5505;51.450;9.254;2024-03-17T16:32:59;10.30;99.90
10905;DHT22;5505;51.450;9.254;2024-03-17T16:35:46;10.20;99.90
10905;DHT22;5505;51.450;9.254;2024-03-17T16:38:33;10.40;99.90
10905;DHT22;5505;51.450;9.254;2024-03-17T16:41:21;10.20;1.00
10905;DHT22;5505;51.450;9.254;2024-03-17T16:44:14;10.10;1.00
10905;DHT22;5505;51.450;9.254;2024-03-17T16:47:22;10.30;99.90
10905;DHT22;5505;51.450;9.254;2024-03-17T16:50:12;9.90;99.90
10905;DHT22;5505;51.450;9.254;2024-03-17T16:52:58;9.80;99.90
10905;DHT22;5505;51.450;9.254;2024-03-17T16:55:46;9.80;99.90
10905;DHT22;5505;51.450;9.254;2024-03-17T16:58:34;9.70;99.90
10905;DHT22;5505;51.450;9.254;2024-03-17T17:01:22;9.70;1.00
10905;DHT22;5505;51.450;9.254;2024-03-17T17:04:10;9.60;1.00
10905;DHT22;5505;51.450;9.254;2024-03-17T17:06:57;9.60;1.00
10905;DHT22;5505;51.450;9.254;2024-03-17T17:09:44;9.60;1.00
10905;DHT22;5505;51.450;9.254;2024-03-17T17:12:31;9.50;1.00
10905;DHT22;5505;51.450;9.254;2024-03-17T17:15:18;9.50;1.00
10905;DHT22;5505;51.450;9.254;2024-03-17T17:18:06;9.50;1.00
10905;DHT22;5505;51.450;9.254;2024-03-17T17:20:53;9.50;1.00
10905;DHT22;5505;51.450;9.254;2024-03-17T17:23:40;9.50;38.50
10905;DHT22;5505;51.450;9.254;2024-03-17T17:26:28;9.40;99.90
10905;DHT22;5505;51.450;9.254;2024-03-17T17:29:16;9.50;99.90
10905;DHT22;5505;51.450;9.254;2024-03-17T17:32:04;9.40;99.90
10905;DHT22;5505;51.450;9.254;2024-03-17T17:34:53;9.40;99.90
10905;DHT22;5505;51.450;9.254;2024-03-17T17:37:40;9.40;99.90
10905;DHT22;5505;51.450;9.254;2024-03-17T17:40:27;9.30;99.90
10905;DHT22;5505;51.450;9.254;2024-03-17T17:43:15;9.30;99.90
10905;DHT22;5505;51.450;9.254;2024-03-17T17:46:02;9.20;99.90
10905;DHT22;5505;51.450;9.254;2024-03-17T17:48:50;9.10;99.90
10905;DHT22;5505;51.450;9.254;2024-03-17T17:51:38;9.00;99.90
10905;DHT22;5505;51.450;9.254;2024-03-17T17:54:25;9.00;99.90
10905;DHT22;5505;51.450;9.254;2024-03-17T17:57:13;8.90;99.90
10905;DHT22;5505;51.450;9.254;2024-03-17T17:59:59;8.90;99.90
10905;DHT22;5505;51.450;9.254;2024-03-17T18:02:46;8.80;99.90
10905;DHT22;5505;51.450;9.254;2024-03-17T18:05:37;8.70;99.90
10905;DHT22;5505;51.450;9.254;2024-03-17T18:08:27;8.70;99.90
10905;DHT22;5505;51.450;9.254;2024-03-17T18:11:19;8.60;99.90
10905;DHT22;5505;51.450;9.254;2024-03-17T18:14:05;8.50;99.90
10905;DHT22;5505;51.450;9.254;2024-03-17T18:16:53;8.50;99.90